Time;durP1;ratioP1;P1;durP2;ratioP2;P2;SDS_P1;SDS_P2;PMS_P1;PMS_P2;Temp;Humidity;BMP_temperature;BMP_pressure;BME280_temperature;BME280_humidity;BME280_pressure;Samples;Min_cycle;Max_cycle;Signal;HPM_P1;HPM_P2
2023/02/11 00:00:39;;;;;;;47.58;24.88;;;;;;;0.17;81.50;100089.25;4152653;28;20620;-83
2023/02/11 00:02:43;;;;;;;41.72;24.60;;;;;;;0.17;81.05;100084.13;4139829;28;20246;-83
2023/02/11 00:04:49;;;;;;;39.30;24.73;;;;;;;0.13;81.34;100084.94;4172296;28;20201;-84
2023/02/11 00:06:54;;;;;;;39.90;22.90;;;;;;;0.07;80.38;100087.50;4154588;28;20207;-83
2023/02/11 00:08:58;;;;;;;37.80;23.40;;;;;;;0.02;80.64;100076.34;4152323;28;20811;-84
2023/02/11 00:11:01;;;;;;;33.92;21.88;;;;;;;0.00;80.12;100078.06;4150997;28;20214;-83
2023/02/11 00:13:04;;;;;;;36.85;22.50;;;;;;;-0.06;80.22;100082.28;4156757;28;20240;-83
2023/02/11 00:15:08;;;;;;;38.58;23.52;;;;;;;-0.08;80.31;100079.72;4151780;28;22061;-83
2023/02/11 00:17:11;;;;;;;42.63;24.50;;;;;;;-0.12;80.81;100083.13;4149185;28;20253;-83
2023/02/11 00:19:14;;;;;;;36.50;22.52;;;;;;;-0.14;81.03;100074.56;4151916;28;20208;-83
2023/02/11 00:21:20;;;;;;;37.83;21.80;;;;;;;-0.16;80.95;100071.13;4154913;28;20685;-83
2023/02/11 00:23:24;;;;;;;36.83;22.40;;;;;;;-0.17;80.90;100073.69;4148864;28;20207;-84
2023/02/11 00:25:27;;;;;;;35.10;21.75;;;;;;;-0.17;81.26;100071.97;4146590;28;20302;-83
2023/02/11 00:27:30;;;;;;;42.25;23.90;;;;;;;-0.20;81.81;100071.97;4133228;28;20260;-84
2023/02/11 00:29:34;;;;;;;41.67;22.63;;;;;;;-0.17;81.77;100068.56;4161769;28;20206;-83
2023/02/11 00:31:38;;;;;;;36.60;21.80;;;;;;;-0.15;81.49;100067.75;4149698;28;20298;-84
2023/02/11 00:33:42;;;;;;;36.92;22.02;;;;;;;-0.14;81.53;100072.00;4173431;28;20233;-83
2023/02/11 00:35:45;;;;;;;39.17;22.05;;;;;;;-0.16;81.50;100076.25;4156130;28;20211;-83
2023/02/11 00:37:48;;;;;;;38.58;22.17;;;;;;;-0.14;81.89;100069.44;4170121;28;20220;-83
2023/02/11 00:39:53;;;;;;;41.58;24.67;;;;;;;-0.16;81.57;100066.00;4138138;28;20220;-83
2023/02/11 00:41:56;;;;;;;43.30;23.70;;;;;;;-0.10;81.73;100070.31;4156608;28;20256;-84
2023/02/11 00:43:59;;;;;;;49.95;27.02;;;;;;;-0.13;81.84;100071.16;4172778;28;20206;-83
2023/02/11 00:46:02;;;;;;;61.72;31.80;;;;;;;-0.15;81.95;100061.72;4133149;28;20208;-84
2023/02/11 00:48:06;;;;;;;54.95;29.15;;;;;;;-0.18;81.96;100064.28;4156586;28;20199;-83
2023/02/11 00:50:09;;;;;;;53.70;30.13;;;;;;;-0.19;81.96;100063.44;4156944;28;20536;-84
2023/02/11 00:52:12;;;;;;;46.70;26.52;;;;;;;-0.20;82.37;100061.72;4145031;28;20679;-84
2023/02/11 00:54:15;;;;;;;43.72;26.13;;;;;;;-0.20;82.02;100059.16;4155307;28;20199;-83
2023/02/11 00:56:20;;;;;;;44.45;25.92;;;;;;;-0.18;81.94;100059.16;4142529;28;20289;-84
2023/02/11 00:58:24;;;;;;;40.97;25.15;;;;;;;-0.19;81.62;100058.31;4143408;28;20215;-84
2023/02/11 01:00:27;;;;;;;42.25;25.20;;;;;;;-0.21;81.65;100049.75;4170021;28;20222;-83
2023/02/11 01:02:30;;;;;;;38.33;23.35;;;;;;;-0.24;81.25;100047.19;4156997;28;20333;-83
2023/02/11 01:04:33;;;;;;;40.85;23.30;;;;;;;-0.26;81.00;100037.75;4156756;28;20699;-84
2023/02/11 01:06:36;;;;;;;35.35;22.40;;;;;;;-0.26;81.12;100028.38;4174469;28;20242;-83
2023/02/11 01:08:40;;;;;;;37.92;23.60;;;;;;;-0.31;81.62;100022.38;4156662;28;20202;-84
2023/02/11 01:10:43;;;;;;;38.53;23.05;;;;;;;-0.29;81.71;100033.47;4139475;28;20212;-84
2023/02/11 01:12:48;;;;;;;41.65;24.40;;;;;;;-0.26;81.73;100025.78;4141156;28;20317;-84
2023/02/11 01:14:51;;;;;;;42.05;25.48;;;;;;;-0.29;81.97;100022.38;4157315;28;20662;-83
2023/02/11 01:16:54;;;;;;;42.83;24.77;;;;;;;-0.30;82.12;100023.22;4174066;28;20651;-83
2023/02/11 01:18:58;;;;;;;38.40;23.00;;;;;;;-0.31;82.20;100019.81;4159670;28;20234;-84
2023/02/11 01:21:01;;;;;;;36.05;23.13;;;;;;;-0.33;81.81;100020.63;4138580;28;20207;-84
2023/02/11 01:23:04;;;;;;;40.70;22.48;;;;;;;-0.36;81.59;100013.81;4172864;28;20230;-83
2023/02/11 01:25:08;;;;;;;39.13;22.17;;;;;;;-0.38;81.55;100018.03;4172787;28;20218;-83
2023/02/11 01:27:11;;;;;;;38.42;22.77;;;;;;;-0.34;81.64;100017.22;4152639;28;20229;-84
2023/02/11 01:29:15;;;;;;;39.97;23.95;;;;;;;-0.35;81.88;100024.91;4156479;28;20211;-85
2023/02/11 01:31:18;;;;;;;38.97;23.35;;;;;;;-0.31;81.86;100024.94;4172371;28;20245;-84
2023/02/11 01:33:22;;;;;;;38.67;24.65;;;;;;;-0.35;82.34;100028.31;4172152;28;20237;-83
2023/02/11 01:35:25;;;;;;;33.22;22.42;;;;;;;-0.35;82.27;100038.56;4168636;28;20206;-84
2023/02/11 01:37:28;;;;;;;36.78;23.08;;;;;;;-0.36;82.33;100036.00;4169275;28;20285;-83
2023/02/11 01:39:33;;;;;;;38.80;22.73;;;;;;;-0.38;82.50;100033.41;4155524;28;20305;-83
2023/02/11 01:41:36;;;;;;;37.45;23.23;;;;;;;-0.34;82.17;100036.88;4155460;28;20211;-84
2023/02/11 01:43:41;;;;;;;37.25;23.05;;;;;;;-0.35;82.20;100027.47;4177563;28;20260;-85
2023/02/11 01:46:06;;;;;;;41.90;22.77;;;;;;;-0.37;81.87;100026.63;4173515;28;20242;-84
2023/02/11 01:48:12;;;;;;;41.33;23.10;;;;;;;-0.43;82.03;100029.97;4170365;28;20297;-84
2023/02/11 01:50:15;;;;;;;35.65;22.15;;;;;;;-0.35;82.20;100017.22;4151340;28;20234;-83
2023/02/11 01:52:22;;;;;;;36.42;21.60;;;;;;;-0.34;82.19;100026.63;4153450;28;20213;-84
2023/02/11 01:59:18;;;;;;;35.55;22.02;;;;;;;-0.31;82.88;100022.38;4174889;28;20726;-83
2023/02/11 02:01:24;;;;;;;37.47;22.42;;;;;;;-0.30;82.85;100020.66;4150559;28;20230;-84
2023/02/11 02:03:28;;;;;;;38.85;23.70;;;;;;;-0.27;83.18;100018.97;4153637;28;20672;-83
2023/02/11 02:05:35;;;;;;;36.88;23.45;;;;;;;-0.29;82.75;100017.25;4141563;28;20258;-83
2023/02/11 02:07:42;;;;;;;36.78;22.90;;;;;;;-0.35;82.61;100012.94;4151782;28;20305;-83
2023/02/11 02:09:50;;;;;;;42.55;23.98;;;;;;;-0.29;82.80;100018.09;4167279;28;20200;-83
2023/02/11 02:11:53;;;;;;;37.65;22.70;;;;;;;-0.26;83.13;100017.25;4155395;28;20306;-83
2023/02/11 02:13:56;;;;;;;42.55;23.67;;;;;;;-0.23;83.45;100018.13;4138308;28;20246;-83
2023/02/11 02:16:01;;;;;;;44.33;24.70;;;;;;;-0.19;84.01;100012.19;4150223;28;20214;-84
2023/02/11 02:18:20;;;;;;;41.47;25.23;;;;;;;-0.12;83.67;100011.38;4165234;28;20199;-84
2023/02/11 02:20:59;;;;;;;36.72;22.60;;;;;;;-0.07;83.80;100013.94;4169560;28;20621;-84
2023/02/11 02:23:25;;;;;;;37.20;22.13;;;;;;;0.01;83.79;100010.53;4165720;28;20585;-84
2023/02/11 02:25:41;;;;;;;39.90;22.70;;;;;;;0.05;83.85;99989.22;4150995;28;20253;-83
2023/02/11 02:27:52;;;;;;;40.65;23.88;;;;;;;0.07;84.12;99995.19;4157852;28;20207;-83
2023/02/11 02:30:16;;;;;;;37.78;23.40;;;;;;;0.11;84.23;100000.31;4153754;28;20738;-83
2023/02/11 02:32:30;;;;;;;38.50;21.85;;;;;;;0.14;83.86;99991.81;4151567;28;20211;-83
2023/02/11 02:34:37;;;;;;;37.17;22.67;;;;;;;0.13;83.92;99979.81;4166249;28;20234;-84
2023/02/11 02:36:44;;;;;;;38.22;22.40;;;;;;;0.13;83.58;99980.66;4170284;28;20279;-84
2023/02/11 02:38:53;;;;;;;40.00;22.92;;;;;;;0.12;83.47;99975.53;4137519;28;20254;-83
2023/02/11 02:40:59;;;;;;;35.13;22.38;;;;;;;0.13;83.00;99972.13;4152027;28;20210;-83
2023/02/11 02:43:03;;;;;;;34.95;22.77;;;;;;;0.13;83.31;99964.44;4151346;28;20234;-85
2023/02/11 02:45:08;;;;;;;41.78;24.17;;;;;;;0.12;82.21;99966.16;4154015;28;20859;-85
2023/02/11 02:47:11;;;;;;;38.78;22.15;;;;;;;0.08;83.08;99964.44;4154457;28;20265;-84
2023/02/11 02:49:17;;;;;;;44.72;24.52;;;;;;;0.06;82.96;99962.69;4167050;28;22030;-84
2023/02/11 02:51:31;;;;;;;38.38;23.65;;;;;;;0.08;83.23;99963.56;4156187;28;20285;-84
2023/02/11 02:53:44;;;;;;;36.72;21.92;;;;;;;0.11;82.48;99961.03;4155067;28;20238;-83
2023/02/11 02:56:00;;;;;;;36.05;21.90;;;;;;;0.14;82.98;99972.13;4170150;28;20228;-85
2023/02/11 02:58:19;;;;;;;40.15;23.05;;;;;;;0.18;83.36;99962.72;4169547;28;20214;-84
2023/02/11 03:00:25;;;;;;;37.03;23.38;;;;;;;0.23;83.43;99959.34;4158167;28;20267;-84
2023/02/11 03:02:31;;;;;;;37.53;22.35;;;;;;;0.25;84.20;99951.66;4156392;28;20301;-83
2023/02/11 03:04:40;;;;;;;38.42;23.33;;;;;;;0.29;84.15;99954.22;4170601;28;20330;-84
2023/02/11 03:06:48;;;;;;;35.08;21.58;;;;;;;0.32;84.16;99958.50;4140258;28;20230;-85
2023/02/11 03:08:57;;;;;;;37.50;22.25;;;;;;;0.33;84.42;99944.81;4169496;28;20209;-84
2023/02/11 03:11:01;;;;;;;44.03;23.13;;;;;;;0.34;84.25;99951.66;4174257;28;20825;-83
2023/02/11 03:13:05;;;;;;;40.33;24.23;;;;;;;0.39;83.92;99944.81;4150789;28;20253;-83
2023/02/11 03:15:09;;;;;;;38.47;22.27;;;;;;;0.40;83.58;99947.38;4165263;28;20226;-85
2023/02/11 03:17:14;;;;;;;32.28;21.17;;;;;;;0.41;83.73;99954.25;4150253;28;20701;-84
2023/02/11 03:19:19;;;;;;;38.25;22.90;;;;;;;0.42;83.70;99952.53;4134075;28;20231;-85
2023/02/11 03:21:24;;;;;;;45.65;24.05;;;;;;;0.42;84.15;99943.09;4169339;28;20209;-84
2023/02/11 03:23:29;;;;;;;38.30;24.35;;;;;;;0.38;83.92;99943.13;4170458;28;20215;-84
2023/02/11 03:25:36;;;;;;;36.45;21.98;;;;;;;0.38;84.17;99936.28;4150609;28;20211;-83
2023/02/11 03:27:43;;;;;;;37.03;22.48;;;;;;;0.42;84.07;99947.38;4169907;28;20212;-84
2023/02/11 03:29:53;;;;;;;37.53;22.63;;;;;;;0.42;83.52;99950.78;4134575;28;20203;-85
2023/02/11 03:32:00;;;;;;;33.55;21.65;;;;;;;0.42;83.82;99955.09;4171036;28;20222;-85
2023/02/11 03:34:08;;;;;;;37.33;22.17;;;;;;;0.39;83.67;99965.34;4157853;28;20212;-84
2023/02/11 03:36:16;;;;;;;36.17;22.55;;;;;;;0.43;84.10;99956.81;4149482;28;20228;-84
2023/02/11 03:38:22;;;;;;;38.38;22.10;;;;;;;0.45;84.69;99953.38;4170395;28;20615;-84
2023/02/11 03:40:27;;;;;;;38.08;22.92;;;;;;;0.47;84.74;99951.69;4168713;28;20209;-84
2023/02/11 03:42:34;;;;;;;38.90;24.30;;;;;;;0.48;84.68;99954.25;4174470;28;20248;-83
2023/02/11 03:44:40;;;;;;;42.53;23.90;;;;;;;0.53;85.02;99970.50;4167816;28;20263;-84
2023/02/11 03:46:48;;;;;;;38.65;22.88;;;;;;;0.56;84.33;99967.94;4153488;28;20208;-84
2023/02/11 03:48:52;;;;;;;39.90;21.60;;;;;;;0.57;84.04;99972.22;4150890;28;20202;-84
2023/02/11 03:50:57;;;;;;;34.03;21.50;;;;;;;0.59;84.44;99979.91;4167953;28;20230;-83
2023/02/11 03:53:01;;;;;;;38.78;22.67;;;;;;;0.62;84.63;99979.94;4154724;28;20301;-84
2023/02/11 03:55:09;;;;;;;36.17;22.00;;;;;;;0.65;84.23;99985.91;4166351;28;24141;-84
2023/02/11 03:57:13;;;;;;;37.58;22.75;;;;;;;0.68;84.27;99975.66;4152815;28;20202;-84
2023/02/11 03:59:15;;;;;;;37.83;22.67;;;;;;;0.69;84.32;99969.66;4148670;28;20266;-84
2023/02/11 04:01:19;;;;;;;32.80;22.08;;;;;;;0.74;84.58;99975.66;4154913;28;20217;-84
2023/02/11 04:03:22;;;;;;;36.10;22.33;;;;;;;0.72;84.05;99969.66;4136941;28;20225;-84
2023/02/11 04:05:25;;;;;;;35.58;21.48;;;;;;;0.71;84.08;99960.25;4166343;28;20245;-84
2023/02/11 04:07:28;;;;;;;34.20;22.08;;;;;;;0.75;84.21;99977.38;4135527;28;20691;-84
2023/02/11 04:09:31;;;;;;;39.50;21.73;;;;;;;0.75;84.14;99967.09;4170120;28;20280;-84
2023/02/11 04:11:36;;;;;;;34.75;21.17;;;;;;;0.79;84.18;99965.38;4159865;28;20214;-84
2023/02/11 04:13:39;;;;;;;37.17;22.73;;;;;;;0.80;83.92;99962.81;4169025;28;20237;-84
2023/02/11 04:15:42;;;;;;;38.70;22.83;;;;;;;0.84;84.30;99966.22;4172657;28;20222;-85
2023/02/11 04:17:45;;;;;;;36.83;22.30;;;;;;;0.84;83.99;99968.78;4136127;28;20265;-84
2023/02/11 04:19:48;;;;;;;37.35;22.85;;;;;;;0.85;84.01;99973.94;4173908;28;20881;-84
2023/02/11 04:21:51;;;;;;;39.42;22.88;;;;;;;0.91;83.96;99973.09;4171321;28;20201;-84
2023/02/11 04:23:55;;;;;;;36.80;22.70;;;;;;;0.93;84.11;99970.50;4151880;28;20213;-84
2023/02/11 04:25:58;;;;;;;36.20;22.17;;;;;;;0.94;83.91;99969.63;4168567;28;20210;-84
2023/02/11 04:28:03;;;;;;;33.47;21.48;;;;;;;0.97;84.67;99981.63;4167210;28;20210;-85
2023/02/11 04:30:07;;;;;;;35.72;20.52;;;;;;;0.98;84.00;99973.94;4154425;28;20640;-85
2023/02/11 04:32:11;;;;;;;36.42;21.67;;;;;;;1.00;84.53;99972.19;4174310;28;20202;-85
2023/02/11 04:34:14;;;;;;;36.70;22.48;;;;;;;1.03;84.12;99973.91;4157652;28;20618;-85
2023/02/11 04:36:17;;;;;;;36.42;23.30;;;;;;;1.04;83.78;99968.78;4138099;28;20742;-85
2023/02/11 04:38:22;;;;;;;35.50;21.48;;;;;;;1.06;84.16;99968.78;4167227;28;20210;-85
2023/02/11 04:40:25;;;;;;;32.92;20.27;;;;;;;1.11;84.18;99967.94;4153929;28;20213;-85
2023/02/11 04:42:29;;;;;;;35.95;22.23;;;;;;;1.15;84.11;99973.91;4158879;28;20301;-84
2023/02/11 04:44:33;;;;;;;39.58;21.13;;;;;;;1.16;83.71;99963.63;4170495;28;20194;-84
2023/02/11 04:46:36;;;;;;;33.25;20.27;;;;;;;1.19;83.82;99968.78;4163758;28;20253;-84
2023/02/11 04:48:39;;;;;;;34.90;20.38;;;;;;;1.15;83.81;99969.63;4170764;28;20679;-84
2023/02/11 04:50:42;;;;;;;33.35;21.10;;;;;;;1.20;83.38;99969.63;4138550;28;20315;-84
2023/02/11 04:52:45;;;;;;;33.47;21.83;;;;;;;1.19;84.29;99967.91;4161421;28;20674;-84
2023/02/11 04:54:48;;;;;;;34.17;23.17;;;;;;;1.19;84.26;99967.91;4152282;28;20252;-84
2023/02/11 04:56:51;;;;;;;35.80;21.85;;;;;;;1.19;84.09;99957.63;4156349;28;20199;-84
2023/02/11 04:58:54;;;;;;;36.33;21.42;;;;;;;1.23;83.95;99959.34;4153501;28;20226;-85
2023/02/11 05:01:06;;;;;;;31.75;21.60;;;;;;;1.23;83.83;99954.19;4158974;28;20210;-84
2023/02/11 05:03:10;;;;;;;36.33;22.10;;;;;;;1.24;84.45;99948.22;4174326;28;20202;-84
2023/02/11 05:05:13;;;;;;;34.95;21.83;;;;;;;1.25;84.32;99949.91;4173260;28;20700;-85
2023/02/11 05:07:16;;;;;;;34.58;22.17;;;;;;;1.24;84.45;99943.06;4175784;28;20642;-84
2023/02/11 05:09:19;;;;;;;34.00;20.88;;;;;;;1.28;83.91;99940.50;4145538;28;20195;-85
2023/02/11 05:11:24;;;;;;;35.83;22.17;;;;;;;1.27;84.30;99927.66;4153391;28;20219;-84
2023/02/11 05:13:27;;;;;;;41.67;23.02;;;;;;;1.31;84.15;99934.47;4171174;28;20309;-84
2023/02/11 05:15:30;;;;;;;36.83;21.60;;;;;;;1.28;83.60;99926.78;4169624;28;20736;-84
2023/02/11 05:17:34;;;;;;;37.40;20.52;;;;;;;1.30;83.71;99925.09;4152896;28;20210;-85
2023/02/11 05:19:41;;;;;;;37.90;23.00;;;;;;;1.26;83.43;99929.34;4153173;28;20621;-84
2023/02/11 05:21:44;;;;;;;35.15;21.35;;;;;;;1.30;83.75;99922.50;4169850;28;20642;-84
2023/02/11 05:24:04;;;;;;;34.65;21.00;;;;;;;1.31;82.86;99919.94;4153475;28;20215;-84
2023/02/11 05:26:07;;;;;;;37.63;23.35;;;;;;;1.31;83.68;99919.06;4153096;28;20616;-85
2023/02/11 05:28:11;;;;;;;37.10;22.45;;;;;;;1.31;84.13;99924.19;4154009;28;20210;-84
2023/02/11 05:30:14;;;;;;;32.05;20.83;;;;;;;1.34;84.07;99929.34;4156152;28;20257;-84
2023/02/11 05:32:17;;;;;;;33.05;21.17;;;;;;;1.35;84.13;99928.47;4157902;28;20233;-85
2023/02/11 05:34:21;;;;;;;35.78;22.00;;;;;;;1.35;83.87;99931.06;4157384;28;20229;-84
2023/02/11 05:36:24;;;;;;;33.40;20.40;;;;;;;1.37;84.53;99926.75;4141835;28;20582;-84
2023/02/11 05:38:28;;;;;;;36.20;21.05;;;;;;;1.39;84.77;99916.47;4152204;28;20268;-84
2023/02/11 05:40:31;;;;;;;36.42;21.90;;;;;;;1.42;84.59;99907.91;4173659;28;20206;-84
2023/02/11 05:42:34;;;;;;;35.40;21.85;;;;;;;1.45;84.44;99913.03;4169484;28;20207;-84
2023/02/11 05:44:37;;;;;;;35.60;21.05;;;;;;;1.47;84.43;99914.75;4153052;28;20214;-84
2023/02/11 05:46:40;;;;;;;33.40;21.58;;;;;;;1.48;84.87;99919.00;4155885;28;20227;-85
2023/02/11 05:48:43;;;;;;;39.97;23.50;;;;;;;1.51;84.42;99921.56;4158088;28;20341;-84
2023/02/11 05:50:48;;;;;;;39.22;24.40;;;;;;;1.50;83.63;99922.44;4170406;28;20214;-84
2023/02/11 05:52:51;;;;;;;37.55;23.50;;;;;;;1.47;83.85;99926.72;4172734;28;20206;-84
2023/02/11 05:54:54;;;;;;;37.75;24.02;;;;;;;1.45;84.20;99939.56;4156059;28;20749;-84
2023/02/11 05:56:57;;;;;;;37.15;22.77;;;;;;;1.42;84.48;99936.16;4151911;28;20355;-84
2023/02/11 05:59:00;;;;;;;36.88;23.55;;;;;;;1.35;84.01;99939.59;4140285;28;20219;-85
2023/02/11 06:01:04;;;;;;;34.63;21.25;;;;;;;1.40;84.30;99936.19;4170436;28;20557;-84
2023/02/11 06:03:07;;;;;;;36.55;22.75;;;;;;;1.40;85.00;99941.31;4173982;28;20748;-84
2023/02/11 06:05:10;;;;;;;32.65;21.58;;;;;;;1.42;84.75;99941.31;4155740;28;20217;-84
2023/02/11 06:07:14;;;;;;;31.08;20.92;;;;;;;1.43;84.20;99949.00;4138845;28;20201;-84
2023/02/11 06:09:17;;;;;;;35.47;22.20;;;;;;;1.43;84.85;99936.16;4153127;28;20266;-85
2023/02/11 06:11:20;;;;;;;35.92;21.70;;;;;;;1.45;84.53;99931.88;4152585;28;20203;-84
2023/02/11 06:13:23;;;;;;;35.58;22.42;;;;;;;1.48;84.69;99931.84;4139407;28;20215;-84
2023/02/11 06:15:28;;;;;;;35.08;21.75;;;;;;;1.50;84.53;99921.56;4156700;28;20797;-84
2023/02/11 06:17:32;;;;;;;39.97;23.30;;;;;;;1.51;83.84;99933.56;4170040;28;20226;-84
2023/02/11 06:19:35;;;;;;;36.05;21.63;;;;;;;1.50;84.22;99930.16;4158554;28;20318;-82
2023/02/11 06:21:39;;;;;;;37.33;23.45;;;;;;;1.51;84.51;99929.28;4143611;28;20250;-84
2023/02/11 06:23:48;;;;;;;34.40;21.33;;;;;;;1.52;84.64;99932.72;4153333;28;20207;-85
2023/02/11 06:25:51;;;;;;;38.95;22.23;;;;;;;1.50;84.56;99922.44;4138082;28;20207;-85
2023/02/11 06:27:55;;;;;;;36.00;21.20;;;;;;;1.50;84.47;99927.59;4169728;28;22416;-84
2023/02/11 06:29:58;;;;;;;39.85;23.27;;;;;;;1.55;84.53;99936.13;4173024;28;20206;-84
2023/02/11 06:32:01;;;;;;;38.35;23.17;;;;;;;1.56;83.92;99936.97;4152428;28;20635;-85
2023/02/11 06:34:04;;;;;;;39.40;23.75;;;;;;;1.57;83.81;99931.81;4157326;28;20207;-84
2023/02/11 06:36:13;;;;;;;39.00;23.85;;;;;;;1.55;84.33;99928.41;4170006;28;20248;-84
2023/02/11 06:38:16;;;;;;;33.20;21.90;;;;;;;1.54;84.91;99929.28;4171334;28;20232;-84
2023/02/11 06:40:20;;;;;;;34.42;22.42;;;;;;;1.53;84.84;99927.59;4159728;28;20317;-85
2023/02/11 06:42:24;;;;;;;33.33;22.23;;;;;;;1.57;84.63;99944.69;4153169;28;20690;-85
2023/02/11 06:44:27;;;;;;;33.28;22.08;;;;;;;1.59;85.40;99937.81;4152177;28;20223;-84
2023/02/11 06:46:30;;;;;;;37.03;22.80;;;;;;;1.61;85.08;99936.13;4170432;28;20214;-84
2023/02/11 06:48:33;;;;;;;33.90;21.85;;;;;;;1.62;84.77;99932.66;4170548;28;20202;-85
2023/02/11 06:50:36;;;;;;;36.75;24.15;;;;;;;1.64;84.69;99936.09;4156183;28;20214;-85
2023/02/11 06:52:40;;;;;;;36.53;22.52;;;;;;;1.65;84.60;99940.34;4136573;28;20210;-84
2023/02/11 06:54:43;;;;;;;32.97;21.98;;;;;;;1.67;84.63;99946.38;4171682;28;24787;-84
2023/02/11 06:56:48;;;;;;;32.78;21.52;;;;;;;1.70;83.95;99954.06;4167917;28;20214;-84
2023/02/11 06:58:53;;;;;;;36.63;22.02;;;;;;;1.72;83.93;99943.78;4169232;28;20210;-84
2023/02/11 07:00:56;;;;;;;38.58;22.83;;;;;;;1.73;83.64;99950.63;4152686;28;20210;-85
2023/02/11 07:02:59;;;;;;;35.72;22.85;;;;;;;1.75;83.81;99948.91;4156922;28;20215;-84
2023/02/11 07:05:03;;;;;;;37.05;22.20;;;;;;;1.75;84.40;99948.91;4170557;28;20252;-84
2023/02/11 07:07:06;;;;;;;37.63;23.05;;;;;;;1.78;83.95;99949.75;4140093;28;20911;-84
2023/02/11 07:09:09;;;;;;;45.83;28.17;;;;;;;1.78;84.70;99951.47;4150508;28;20219;-85
2023/02/11 07:11:15;;;;;;;44.72;27.45;;;;;;;1.78;84.50;99941.19;4155247;28;20213;-85
2023/02/11 07:13:19;;;;;;;46.28;27.80;;;;;;;1.76;85.07;99936.06;4139753;28;20219;-84
2023/02/11 07:15:22;;;;;;;42.10;26.92;;;;;;;1.77;85.11;99930.03;4158962;28;20218;-85
2023/02/11 07:17:25;;;;;;;47.15;27.08;;;;;;;1.78;84.72;99929.19;4166290;28;20725;-84
2023/02/11 07:19:28;;;;;;;44.83;26.90;;;;;;;1.81;84.66;99933.47;4156656;28;20207;-86
2023/02/11 07:21:31;;;;;;;44.92;25.45;;;;;;;1.82;85.09;99933.47;4140514;28;20211;-84
2023/02/11 07:23:36;;;;;;;38.58;24.58;;;;;;;1.82;84.53;99933.47;4154301;28;20217;-85
2023/02/11 07:25:39;;;;;;;45.72;28.30;;;;;;;1.85;84.90;99938.59;4155517;28;20266;-84
2023/02/11 07:27:42;;;;;;;43.28;27.23;;;;;;;1.91;84.64;99943.69;4167446;28;20811;-84
2023/02/11 07:29:47;;;;;;;38.83;25.60;;;;;;;1.92;84.19;99953.09;4164892;28;20198;-85
2023/02/11 07:31:50;;;;;;;41.30;26.52;;;;;;;1.93;84.88;99949.69;4136250;28;20199;-84
2023/02/11 07:33:54;;;;;;;43.55;27.02;;;;;;;1.98;84.63;99948.78;4153834;28;20281;-84
2023/02/11 07:36:00;;;;;;;39.90;24.67;;;;;;;2.02;84.72;99949.63;4138285;28;20713;-84
2023/02/11 07:38:03;;;;;;;41.25;26.85;;;;;;;2.05;85.15;99947.06;4154123;28;20333;-85
2023/02/11 07:40:07;;;;;;;43.67;28.73;;;;;;;2.09;85.16;99944.47;4155907;28;20199;-85
2023/02/11 07:42:10;;;;;;;46.47;30.30;;;;;;;2.14;84.81;99944.44;4170072;28;20209;-85
2023/02/11 07:44:13;;;;;;;43.38;28.52;;;;;;;2.18;84.79;99943.53;4152288;28;20243;-84
2023/02/11 07:46:19;;;;;;;46.55;27.88;;;;;;;2.32;84.40;99939.19;4153934;28;20206;-85
2023/02/11 07:48:22;;;;;;;46.55;27.58;;;;;;;2.40;84.52;99935.69;4157429;28;20198;-85
2023/02/11 07:50:25;;;;;;;41.45;27.42;;;;;;;2.48;84.46;99942.50;4171289;28;20210;-85
2023/02/11 07:52:29;;;;;;;46.25;28.05;;;;;;;2.64;83.93;99943.22;4151851;28;20211;-85
2023/02/11 07:54:32;;;;;;;51.90;27.92;;;;;;;2.75;83.64;99947.41;4167625;28;20222;-84
2023/02/11 07:56:35;;;;;;;40.60;26.77;;;;;;;2.87;82.82;99949.88;4170863;28;20977;-84
2023/02/11 07:58:40;;;;;;;43.20;26.83;;;;;;;2.91;82.47;99944.69;4150730;28;20225;-84
2023/02/11 08:00:44;;;;;;;41.40;26.67;;;;;;;2.87;83.75;99944.75;4166796;28;20241;-85
2023/02/11 08:02:49;;;;;;;40.25;26.25;;;;;;;2.88;83.52;99949.03;4153859;28;20198;-84
2023/02/11 08:04:52;;;;;;;38.28;25.73;;;;;;;2.90;83.40;99947.28;4153022;28;20285;-85
2023/02/11 08:06:56;;;;;;;39.92;25.48;;;;;;;2.94;82.92;99948.97;4165843;28;20237;-85
2023/02/11 08:09:04;;;;;;;39.30;28.15;;;;;;;3.03;83.14;99957.47;4147946;28;20249;-84
2023/02/11 08:11:08;;;;;;;44.85;30.00;;;;;;;3.06;82.73;99964.34;4149163;28;20249;-84
2023/02/11 08:13:11;;;;;;;45.80;30.55;;;;;;;3.11;83.35;99966.00;4160290;28;20206;-85
2023/02/11 08:15:15;;;;;;;47.03;29.70;;;;;;;3.15;82.93;99964.25;4164655;28;20299;-86
2023/02/11 08:17:19;;;;;;;47.78;29.42;;;;;;;3.25;82.77;99976.16;4130243;28;20844;-85
2023/02/11 08:19:23;;;;;;;46.13;30.75;;;;;;;3.37;83.14;99980.34;4149237;28;20222;-85
2023/02/11 08:21:27;;;;;;;44.17;29.38;;;;;;;3.42;82.55;99975.16;4134093;28;20714;-85
2023/02/11 08:23:30;;;;;;;51.78;35.20;;;;;;;3.52;82.97;99990.50;4149809;28;20249;-84
2023/02/11 08:25:33;;;;;;;47.17;31.13;;;;;;;3.56;82.57;99988.75;4154317;28;20253;-85
2023/02/11 08:27:36;;;;;;;51.70;33.88;;;;;;;3.55;82.09;99987.03;4133110;28;20204;-85
2023/02/11 08:29:39;;;;;;;48.40;30.58;;;;;;;3.57;82.46;99985.31;4163676;28;20237;-85
2023/02/11 08:31:45;;;;;;;48.72;31.55;;;;;;;3.88;83.07;99990.13;4130036;28;20307;-84
2023/02/11 08:33:49;;;;;;;47.47;30.45;;;;;;;4.26;83.19;99991.34;4167294;28;20206;-85
2023/02/11 08:35:53;;;;;;;54.17;32.78;;;;;;;4.41;80.59;99986.81;4147286;28;20206;-84
2023/02/11 08:37:56;;;;;;;45.63;30.85;;;;;;;4.49;80.88;99984.97;4152421;28;20309;-84
2023/02/11 08:40:00;;;;;;;43.55;29.23;;;;;;;4.62;81.28;99971.03;4170528;28;20214;-84
2023/02/11 08:42:03;;;;;;;47.38;31.08;;;;;;;4.60;80.62;99961.56;4148693;28;20239;-83
2023/02/11 08:44:06;;;;;;;36.75;25.70;;;;;;;4.55;79.58;99969.41;4139078;28;20255;-84
2023/02/11 08:46:10;;;;;;;44.75;28.30;;;;;;;4.63;78.98;99967.56;4147290;28;20234;-85
2023/02/11 08:48:13;;;;;;;40.78;26.55;;;;;;;4.71;79.41;99965.72;4166652;28;20241;-84
2023/02/11 08:50:16;;;;;;;50.60;32.55;;;;;;;4.76;79.29;99975.09;4133394;28;20258;-84
2023/02/11 08:52:21;;;;;;;48.05;33.65;;;;;;;4.85;78.86;99979.28;4135743;28;20306;-84
2023/02/11 08:54:24;;;;;;;46.45;32.20;;;;;;;5.03;79.16;99979.00;4151212;28;20211;-84
2023/02/11 08:56:30;;;;;;;44.28;31.35;;;;;;;5.20;78.05;99989.03;4149697;28;20697;-84
2023/02/11 08:58:33;;;;;;;43.90;28.60;;;;;;;5.31;78.09;99989.69;4167728;28;20228;-84
2023/02/11 09:00:36;;;;;;;39.00;27.60;;;;;;;5.36;77.75;99990.47;4154179;28;20225;-83
2023/02/11 09:02:39;;;;;;;40.00;28.27;;;;;;;5.45;77.89;99985.13;4155827;28;20767;-84
2023/02/11 09:04:42;;;;;;;42.10;28.00;;;;;;;5.74;78.52;99985.47;4172907;28;20678;-85
2023/02/11 09:06:46;;;;;;;40.33;27.40;;;;;;;5.85;77.66;99986.09;4175507;28;20206;-85
2023/02/11 09:08:52;;;;;;;36.75;25.38;;;;;;;5.94;77.88;99976.44;4138867;28;21556;-86
2023/02/11 09:10:56;;;;;;;41.53;27.30;;;;;;;6.16;78.81;99973.41;4155198;28;20562;-84
2023/02/11 09:12:59;;;;;;;40.42;27.42;;;;;;;6.20;77.70;99959.47;4150200;28;20212;-84
2023/02/11 09:15:02;;;;;;;34.10;24.10;;;;;;;6.30;76.63;99963.59;4170257;28;20251;-84
2023/02/11 09:17:05;;;;;;;33.63;23.40;;;;;;;6.43;76.54;99961.56;4154566;28;20267;-84
2023/02/11 09:19:09;;;;;;;36.28;23.70;;;;;;;6.68;75.75;99958.41;4166682;28;20310;-82
2023/02/11 09:21:13;;;;;;;33.50;22.63;;;;;;;6.98;75.48;99968.91;4157010;28;20219;-82
2023/02/11 09:23:16;;;;;;;31.10;22.35;;;;;;;7.22;74.01;99973.50;4154544;28;20234;-82
2023/02/11 09:25:21;;;;;;;32.83;23.25;;;;;;;7.40;73.68;99979.06;4148919;28;21153;-81
2023/02/11 09:27:24;;;;;;;31.65;22.55;;;;;;;7.64;74.91;99978.44;4146517;28;20207;-82
2023/02/11 09:29:28;;;;;;;28.70;21.42;;;;;;;7.85;73.95;99977.81;4149698;28;20252;-81
2023/02/11 09:31:32;;;;;;;29.60;21.92;;;;;;;7.87;72.79;99981.25;4152777;28;20213;-82
2023/02/11 09:33:35;;;;;;;29.90;22.35;;;;;;;7.71;71.67;99982.56;4168057;28;20203;-82
2023/02/11 09:35:39;;;;;;;33.33;23.75;;;;;;;7.52;73.08;99973.56;4175465;28;20306;-82
2023/02/11 09:37:42;;;;;;;31.40;23.65;;;;;;;7.36;72.37;99976.59;4152597;28;20194;-82
2023/02/11 09:39:46;;;;;;;33.97;25.05;;;;;;;7.14;72.47;99980.59;4136784;28;20778;-82
2023/02/11 09:42:07;;;;;;;35.33;25.55;;;;;;;6.94;72.53;99979.38;4157188;28;20622;-83